createdAt,value
2019-01-04T00:01:38.640Z,102012.34
2019-01-04T00:04:06.280Z,102017.53
2019-01-04T00:06:34.177Z,102015.98
2019-01-04T00:09:01.816Z,102019.22
2019-01-04T00:11:29.426Z,102026.26
2019-01-04T00:13:57.672Z,102032.09
2019-01-04T00:16:25.290Z,102022.73
2019-01-04T00:18:53.203Z,102020.70
2019-01-04T00:21:21.171Z,102029.77
2019-01-04T00:23:49.139Z,102026.16
2019-01-04T00:26:16.775Z,102026.75
2019-01-04T00:28:44.410Z,102029.11
2019-01-04T00:31:12.038Z,102034.86
2019-01-04T00:33:39.998Z,102034.31
2019-01-04T00:36:07.619Z,102042.61
2019-01-04T00:38:35.526Z,102039.94
2019-01-04T00:41:03.147Z,102039.91
2019-01-04T00:43:31.065Z,102044.61
2019-01-04T00:45:58.679Z,102050.44
2019-01-04T00:48:26.582Z,102050.77
2019-01-04T00:50:54.556Z,102040.49
2019-01-04T00:53:22.200Z,102056.38
2019-01-04T00:55:49.820Z,102052.45
2019-01-04T00:58:17.447Z,102061.10
2019-01-04T01:00:45.408Z,102059.81
2019-01-04T01:03:13.380Z,102064.03
2019-01-04T01:05:41.321Z,102059.38
2019-01-04T01:08:09.235Z,102065.86
2019-01-04T01:10:36.861Z,102052.16
2019-01-04T01:13:04.483Z,102058.79
2019-01-04T01:15:32.510Z,102060.26
2019-01-04T01:18:00.481Z,102057.39
2019-01-04T01:20:28.450Z,102060.30
2019-01-04T01:22:56.418Z,102056.67
2019-01-04T01:25:24.387Z,102055.99
2019-01-04T01:27:52.359Z,102055.07
2019-01-04T01:30:20.329Z,102062.63
2019-01-04T01:32:48.297Z,102058.86
2019-01-04T01:35:16.268Z,102061.05
2019-01-04T01:37:44.235Z,102056.52
2019-01-04T01:40:11.859Z,102054.91
2019-01-04T01:42:39.768Z,102053.09
2019-01-04T01:45:07.391Z,102043.87
2019-01-04T01:47:35.295Z,102048.99
2019-01-04T01:50:02.932Z,102047.88
2019-01-04T01:52:30.833Z,102046.60
2019-01-04T01:54:58.454Z,102058.14
2019-01-04T01:57:26.084Z,102055.23
2019-01-04T01:59:54.020Z,102052.70
2019-01-04T02:02:21.988Z,102045.32
2019-01-04T02:04:49.625Z,102054.88
2019-01-04T02:07:17.579Z,102039.38
2019-01-04T02:09:45.493Z,102051.30
2019-01-04T02:12:13.454Z,102055.62
2019-01-04T02:14:41.430Z,102059.39
2019-01-04T02:17:09.395Z,102054.19
2019-01-04T02:19:37.364Z,102057.75
2019-01-04T02:22:05.340Z,102058.31
2019-01-04T02:24:33.305Z,102057.25
2019-01-04T02:27:00.937Z,102055.64
2019-01-04T02:29:28.570Z,102050.42
2019-01-04T02:31:56.497Z,102046.63
2019-01-04T02:34:24.469Z,102043.95
2019-01-04T02:36:52.093Z,102043.55
2019-01-04T02:39:20.013Z,102041.34
2019-01-04T02:41:47.966Z,102041.84
2019-01-04T02:44:15.934Z,102041.66
2019-01-04T02:46:43.564Z,102039.06
2019-01-04T02:49:11.469Z,102039.39
2019-01-04T02:51:39.453Z,102035.88
2019-01-04T02:54:07.408Z,102030.08
2019-01-04T02:56:35.036Z,102029.93
2019-01-04T02:59:02.934Z,102028.12
2019-01-04T03:01:30.566Z,102026.86
2019-01-04T03:03:58.468Z,102031.53
2019-01-04T03:06:26.117Z,102025.10
2019-01-04T03:08:53.743Z,102028.89
2019-01-04T03:11:21.655Z,102025.82
2019-01-04T03:13:49.278Z,102023.08
2019-01-04T03:16:17.189Z,102021.97
2019-01-04T03:18:44.821Z,102018.35
2019-01-04T03:21:12.715Z,102017.23
2019-01-04T03:23:40.682Z,102015.06
2019-01-04T03:26:08.655Z,102016.48
2019-01-04T03:28:36.624Z,102015.73
2019-01-04T03:31:04.253Z,102017.17
2019-01-04T03:33:31.888Z,102006.98
2019-01-04T03:35:59.524Z,102012.62
2019-01-04T03:38:27.480Z,102007.92
2019-01-04T03:40:55.454Z,102005.90
2019-01-04T03:43:23.414Z,102002.97
2019-01-04T03:45:51.389Z,102000.44
2019-01-04T03:48:19.013Z,101997.00
2019-01-04T03:50:46.651Z,101999.72
2019-01-04T03:53:14.285Z,101991.58
2019-01-04T03:55:42.241Z,101982.90
2019-01-04T03:58:10.212Z,101980.91
2019-01-04T04:00:37.844Z,101979.06
2019-01-04T04:03:05.739Z,101978.56
2019-01-04T04:05:33.380Z,101975.13
2019-01-04T04:08:01.010Z,101974.66
2019-01-04T04:10:28.954Z,101975.13
2019-01-04T04:12:56.663Z,101967.56
2019-01-04T04:15:24.364Z,101966.63
2019-01-04T04:17:52.348Z,101956.53
2019-01-04T04:20:20.301Z,101958.67
2019-01-04T04:22:48.289Z,101953.83
2019-01-04T04:25:16.019Z,101954.47
2019-01-04T04:27:44.002Z,101960.40
2019-01-04T04:30:11.990Z,101953.34
2019-01-04T04:32:39.939Z,101949.15
2019-01-04T04:35:07.652Z,101954.97
2019-01-04T04:37:35.571Z,101956.70
2019-01-04T04:40:03.207Z,101952.04
2019-01-04T04:42:31.101Z,101948.78
2019-01-04T04:44:58.732Z,101956.20
2019-01-04T04:47:26.634Z,101953.62
2019-01-04T04:49:54.256Z,101954.31
2019-01-04T04:52:21.960Z,101954.41
2019-01-04T04:54:49.932Z,101951.19
2019-01-04T04:57:17.572Z,101949.20
2019-01-04T04:59:45.274Z,101948.66
2019-01-04T05:02:12.918Z,101947.03
2019-01-04T05:04:40.557Z,101943.73
2019-01-04T05:07:08.553Z,101946.98
2019-01-04T05:09:36.184Z,101947.17
2019-01-04T05:12:03.882Z,101945.23
2019-01-04T05:14:31.513Z,101945.63
2019-01-04T05:16:59.406Z,101953.92
2019-01-04T05:19:27.037Z,101946.86
2019-01-04T05:21:54.932Z,101945.23
2019-01-04T05:24:22.554Z,101944.32
2019-01-04T05:26:50.464Z,101941.20
2019-01-04T05:29:18.106Z,101938.48
2019-01-04T05:31:46.093Z,101931.25
2019-01-04T05:34:14.081Z,101933.38
2019-01-04T05:36:42.035Z,101929.70
2019-01-04T05:39:09.999Z,101927.66
2019-01-04T05:41:37.970Z,101922.24
2019-01-04T05:44:05.941Z,101920.30
2019-01-04T05:46:33.910Z,101925.72
2019-01-04T05:49:01.880Z,101928.75
2019-01-04T05:51:29.516Z,101926.22
2019-01-04T05:53:57.410Z,101933.22
2019-01-04T05:56:25.378Z,101931.05
2019-01-04T05:58:53.350Z,101937.44
2019-01-04T06:01:20.989Z,101928.02
2019-01-04T06:03:49.029Z,101935.53
2019-01-04T06:06:16.947Z,101939.02
2019-01-04T06:08:44.918Z,101934.55
2019-01-04T06:11:12.548Z,101935.75
2019-01-04T06:13:40.449Z,101937.11
2019-01-04T06:16:08.424Z,101927.20
2019-01-04T06:18:36.058Z,101925.70
2019-01-04T06:21:03.696Z,101929.01
2019-01-04T06:23:31.328Z,101929.09
2019-01-04T06:25:59.275Z,101918.23
2019-01-04T06:28:27.241Z,101911.34
2019-01-04T06:30:55.213Z,101913.11
2019-01-04T06:33:23.182Z,101904.59
2019-01-04T06:35:51.167Z,101899.12
2019-01-04T06:38:19.120Z,101899.88
2019-01-04T06:40:47.098Z,101895.25
2019-01-04T06:43:14.734Z,101894.27
2019-01-04T06:45:42.726Z,101898.08
2019-01-04T06:48:10.692Z,101897.71
2019-01-04T06:50:38.659Z,101897.85
2019-01-04T06:53:06.290Z,101899.53
2019-01-04T06:55:33.925Z,101907.98
2019-01-04T06:58:01.552Z,101905.37
2019-01-04T07:00:29.185Z,101905.56
2019-01-04T07:02:57.185Z,101914.02
2019-01-04T07:05:25.147Z,101909.06
2019-01-04T07:07:52.790Z,101903.04
2019-01-04T07:10:20.428Z,101906.89
2019-01-04T07:12:48.345Z,101903.09
2019-01-04T07:15:16.012Z,101900.73
2019-01-04T07:17:43.971Z,101902.36
2019-01-04T07:20:11.606Z,101904.31
2019-01-04T07:22:39.506Z,101902.08
2019-01-04T07:25:07.485Z,101911.61
2019-01-04T07:27:35.122Z,101911.37
2019-01-04T07:30:03.103Z,101906.80
2019-01-04T07:32:30.759Z,101909.09
2019-01-04T07:34:58.763Z,101907.28
2019-01-04T07:37:26.398Z,101906.55
2019-01-04T07:39:54.369Z,101904.98
2019-01-04T07:42:22.019Z,101900.33
2019-01-04T07:44:49.657Z,101894.46
2019-01-04T07:47:17.297Z,101886.14
2019-01-04T07:49:45.220Z,101884.08
2019-01-04T07:52:12.865Z,101884.02
2019-01-04T07:54:40.871Z,101885.52
2019-01-04T07:57:08.821Z,101885.05
2019-01-04T07:59:36.796Z,101891.33
2019-01-04T08:02:04.511Z,101890.90
2019-01-04T08:04:32.426Z,101884.33
2019-01-04T08:07:00.066Z,101886.07
2019-01-04T08:09:28.061Z,101878.87
2019-01-04T08:11:55.692Z,101882.72
2019-01-04T08:14:23.588Z,101875.64
2019-01-04T08:16:51.574Z,101872.12
2019-01-04T08:19:19.527Z,101868.96
2019-01-04T08:21:47.165Z,101858.27
2019-01-04T08:24:14.794Z,101859.53
2019-01-04T08:26:42.725Z,101857.28
2019-01-04T08:29:10.809Z,101847.50
2019-01-04T08:31:38.578Z,101835.57
2019-01-04T08:34:06.525Z,101835.81
2019-01-04T08:36:34.495Z,101836.20
2019-01-04T08:39:02.470Z,101824.53
2019-01-04T08:41:30.435Z,101812.44
2019-01-04T08:43:58.404Z,101825.73
2019-01-04T08:46:26.379Z,101825.98
2019-01-04T08:48:54.347Z,101821.72
2019-01-04T08:51:21.988Z,101817.91
2019-01-04T08:53:49.620Z,101809.45
2019-01-04T08:56:17.246Z,101810.00
2019-01-04T08:58:45.203Z,101804.79
2019-01-04T09:01:12.891Z,101807.44
2019-01-04T09:03:40.860Z,101796.77
2019-01-04T09:06:08.800Z,101794.22
2019-01-04T09:08:36.769Z,101786.92
2019-01-04T09:11:04.741Z,101789.16
2019-01-04T09:13:32.729Z,101784.61
2019-01-04T09:16:00.361Z,101778.28
2019-01-04T09:18:28.345Z,101770.38
2019-01-04T09:20:55.975Z,101769.69
2019-01-04T09:23:23.874Z,101768.91
2019-01-04T09:25:51.842Z,101762.45
2019-01-04T09:28:19.480Z,101758.64
2019-01-04T09:30:47.116Z,101756.24
2019-01-04T09:33:15.043Z,101754.34
2019-01-04T09:35:42.658Z,101758.05
2019-01-04T09:38:10.664Z,101770.30
2019-01-04T09:40:38.648Z,101758.36
2019-01-04T09:43:06.598Z,101754.02
2019-01-04T09:45:34.571Z,101749.20
2019-01-04T09:48:02.560Z,101748.02
2019-01-04T09:50:30.210Z,101747.92
2019-01-04T09:52:58.171Z,101743.03
2019-01-04T09:55:26.139Z,101744.88
2019-01-04T09:57:53.783Z,101741.06
2019-01-04T10:00:21.671Z,101745.11
2019-01-04T10:02:49.317Z,101749.50
2019-01-04T10:05:16.952Z,101734.81
2019-01-04T10:07:44.864Z,101728.61
2019-01-04T10:10:12.677Z,101716.99
2019-01-04T10:12:40.631Z,101711.09
2019-01-04T10:15:08.255Z,101696.61
2019-01-04T10:17:36.230Z,101698.04
2019-01-04T10:20:04.215Z,101681.81
2019-01-04T10:22:31.846Z,101664.92
2019-01-04T10:24:59.482Z,101664.03
2019-01-04T10:27:27.389Z,101642.91
2019-01-04T10:29:55.019Z,101651.34
2019-01-04T10:32:22.918Z,101648.19
2019-01-04T10:34:50.892Z,101637.11
2019-01-04T10:37:18.518Z,101628.08
2019-01-04T10:39:46.423Z,101634.19
2019-01-04T10:42:14.044Z,101619.16
2019-01-04T10:44:41.949Z,101615.22
2019-01-04T10:47:09.585Z,101618.18
2019-01-04T10:49:37.212Z,101598.84
2019-01-04T10:52:05.148Z,101608.28
2019-01-04T10:54:33.117Z,101593.63
2019-01-04T10:57:00.738Z,101597.94
2019-01-04T10:59:28.376Z,101590.82
2019-01-04T11:01:56.308Z,101584.56
2019-01-04T11:04:24.272Z,101564.70
2019-01-04T11:06:52.554Z,101567.22
2019-01-04T11:09:20.515Z,101561.27
2019-01-04T11:11:48.140Z,101556.91
2019-01-04T11:14:16.048Z,101556.91
2019-01-04T11:16:44.021Z,101547.88
2019-01-04T11:19:11.993Z,101536.03
2019-01-04T11:21:39.613Z,101531.58
2019-01-04T11:24:07.517Z,101529.41
2019-01-04T11:26:35.487Z,101520.25
2019-01-04T11:29:03.461Z,101508.27
2019-01-04T11:31:31.430Z,101496.30
2019-01-04T11:33:59.065Z,101500.89
2019-01-04T11:36:26.695Z,101498.09
2019-01-04T11:38:55.157Z,101498.47
2019-01-04T11:41:22.780Z,101484.20
2019-01-04T11:43:50.765Z,101483.32
2019-01-04T11:46:18.513Z,101478.51
2019-01-04T11:48:46.392Z,101464.22
2019-01-04T11:51:14.018Z,101464.09
2019-01-04T11:53:42.456Z,101449.94
2019-01-04T11:56:10.401Z,101445.35
2019-01-04T11:58:38.374Z,101445.36
2019-01-04T12:01:06.343Z,101450.73
2019-01-04T12:03:33.972Z,101446.88
2019-01-04T12:06:01.594Z,101444.72
2019-01-04T12:08:29.535Z,101444.48
2019-01-04T12:10:57.508Z,101440.76
2019-01-04T12:13:25.168Z,101426.35
2019-01-04T12:15:52.789Z,101423.95
2019-01-04T12:18:20.694Z,101415.78
2019-01-04T12:20:48.331Z,101406.47
2019-01-04T12:23:16.017Z,101403.70
2019-01-04T12:25:43.614Z,101388.88
2019-01-04T12:28:11.567Z,101393.22
2019-01-04T12:30:39.203Z,101386.72
2019-01-04T12:33:07.082Z,101381.90
2019-01-04T12:35:34.720Z,101375.00
2019-01-04T12:38:02.359Z,101364.05
2019-01-04T12:40:29.988Z,101355.13
2019-01-04T12:42:57.619Z,101352.06
2019-01-04T12:45:25.605Z,101353.59
2019-01-04T12:47:53.567Z,101352.31
2019-01-04T12:50:21.201Z,101349.00
2019-01-04T12:52:48.830Z,101339.84
2019-01-04T12:55:16.758Z,101336.88
2019-01-04T12:57:44.729Z,101343.39
2019-01-04T13:00:12.549Z,101338.05
2019-01-04T13:02:40.472Z,101341.08
2019-01-04T13:05:08.431Z,101339.05
2019-01-04T13:07:36.127Z,101341.36
2019-01-04T13:10:03.765Z,101332.30
2019-01-04T13:12:31.743Z,101339.56
2019-01-04T13:14:59.701Z,101321.48
2019-01-04T13:17:27.668Z,101323.27
2019-01-04T13:19:55.317Z,101318.16
2019-01-04T13:22:23.195Z,101312.17
2019-01-04T13:24:51.169Z,101318.30
2019-01-04T13:27:19.145Z,101309.87
2019-01-04T13:29:46.783Z,101321.20
2019-01-04T13:32:14.766Z,101320.44
2019-01-04T13:34:42.778Z,101334.09
2019-01-04T13:37:10.809Z,101340.70
2019-01-04T13:39:38.782Z,101336.88
2019-01-04T13:42:06.746Z,101341.22
2019-01-04T13:44:34.720Z,101345.15
2019-01-04T13:47:02.691Z,101352.52
2019-01-04T13:49:30.673Z,101338.63
2019-01-04T13:51:58.629Z,101346.66
2019-01-04T13:54:26.604Z,101331.73
2019-01-04T13:56:54.227Z,101325.36
2019-01-04T13:59:22.127Z,101321.16
2019-01-04T14:01:49.754Z,101312.47
2019-01-04T14:04:17.378Z,101309.30
2019-01-04T14:06:45.315Z,101311.47
2019-01-04T14:09:13.287Z,101310.67
2019-01-04T14:11:41.258Z,101299.20
2019-01-04T14:14:08.890Z,101294.09
2019-01-04T14:16:36.795Z,101300.36
2019-01-04T14:19:04.755Z,101289.80
2019-01-04T14:21:32.432Z,101303.69
2019-01-04T14:24:00.019Z,101296.94
2019-01-04T14:26:27.655Z,101299.11
2019-01-04T14:28:55.612Z,101286.26
2019-01-04T14:31:23.239Z,101294.39
2019-01-04T14:33:51.142Z,101284.94
2019-01-04T14:36:19.111Z,101300.24
2019-01-04T14:38:46.750Z,101296.45
2019-01-04T14:41:14.402Z,101294.39
2019-01-04T14:43:42.027Z,101304.11
2019-01-04T14:46:09.666Z,101288.00
2019-01-04T14:48:37.291Z,101278.08
2019-01-04T14:51:05.530Z,101273.22
2019-01-04T14:53:33.179Z,101267.75
2019-01-04T14:56:01.150Z,101255.89
2019-01-04T14:58:29.095Z,101244.66
2019-01-04T15:00:56.728Z,101237.80
2019-01-04T15:03:24.350Z,101219.45
2019-01-04T15:05:52.310Z,101214.87
2019-01-04T15:08:20.256Z,101203.76
2019-01-04T15:10:48.226Z,101197.27
2019-01-04T15:13:16.193Z,101205.56
2019-01-04T15:15:43.819Z,101193.42
2019-01-04T15:18:11.727Z,101186.16
2019-01-04T15:20:39.358Z,101189.83
2019-01-04T15:23:07.054Z,101199.03
2019-01-04T15:25:35.023Z,101197.45
2019-01-04T15:28:02.986Z,101192.87
2019-01-04T15:30:30.619Z,101182.40
2019-01-04T15:32:58.236Z,101192.07
2019-01-04T15:35:26.185Z,101192.56
2019-01-04T15:37:54.148Z,101186.44
2019-01-04T15:40:22.120Z,101188.99
2019-01-04T15:42:49.811Z,101192.78
2019-01-04T15:45:17.477Z,101196.86
2019-01-04T15:47:45.416Z,101196.59
2019-01-04T15:50:13.388Z,101194.52
2019-01-04T15:52:41.015Z,101196.59
2019-01-04T15:55:08.639Z,101193.66
2019-01-04T15:57:36.581Z,101198.11
2019-01-04T16:00:04.546Z,101189.83
2019-01-04T16:02:32.515Z,101190.74
2019-01-04T16:05:00.500Z,101186.38
2019-01-04T16:07:28.459Z,101185.34
2019-01-04T16:09:56.089Z,101175.87
2019-01-04T16:12:23.990Z,101167.48
2019-01-04T16:14:51.953Z,101154.59
2019-01-04T16:17:19.943Z,101153.95
2019-01-04T16:19:47.568Z,101142.92
2019-01-04T16:22:15.198Z,101139.23
2019-01-04T16:24:42.829Z,101136.19
2019-01-04T16:27:10.544Z,101146.17
2019-01-04T16:29:38.165Z,101146.78
2019-01-04T16:32:05.805Z,101129.88
2019-01-04T16:34:33.773Z,101131.38
2019-01-04T16:37:01.738Z,101136.73
2019-01-04T16:39:29.708Z,101144.97
2019-01-04T16:41:57.675Z,101129.59
2019-01-04T16:44:25.301Z,101129.97
2019-01-04T16:46:53.209Z,101135.55
2019-01-04T16:49:21.175Z,101129.72
2019-01-04T16:51:48.810Z,101135.20
2019-01-04T16:54:16.705Z,101135.30
2019-01-04T16:56:44.674Z,101133.55
2019-01-04T16:59:12.642Z,101142.73
2019-01-04T17:01:40.610Z,101137.39
2019-01-04T17:04:08.583Z,101127.19
2019-01-04T17:06:36.550Z,101127.19
2019-01-04T17:09:04.826Z,101126.42
2019-01-04T17:11:32.799Z,101121.93
2019-01-04T17:14:00.765Z,101109.11
2019-01-04T17:16:28.755Z,101103.15
2019-01-04T17:18:56.708Z,101116.89
2019-01-04T17:21:24.679Z,101113.12
2019-01-04T17:23:52.648Z,101122.86
2019-01-04T17:26:20.275Z,101123.27
2019-01-04T17:28:48.178Z,101133.25
2019-01-04T17:31:15.809Z,101107.23
2019-01-04T17:33:43.706Z,101127.62
2019-01-04T17:36:11.344Z,101117.79
2019-01-04T17:38:39.236Z,101106.98
2019-01-04T17:41:07.202Z,101111.70
2019-01-04T17:43:35.178Z,101113.52
2019-01-04T17:46:03.146Z,101107.77
2019-01-04T17:48:30.770Z,101118.59
2019-01-04T17:50:58.676Z,101114.41
2019-01-04T17:53:26.643Z,101114.79
2019-01-04T17:55:54.611Z,101099.86
2019-01-04T17:58:22.587Z,101104.84
2019-01-04T18:00:50.553Z,101111.34
2019-01-04T18:03:18.521Z,101119.16
2019-01-04T18:05:46.496Z,101098.46
2019-01-04T18:08:14.508Z,101110.61
2019-01-04T18:10:42.464Z,101093.00
2019-01-04T18:13:10.402Z,101091.54
2019-01-04T18:15:38.371Z,101095.81
2019-01-04T18:18:06.009Z,101097.95
2019-01-04T18:20:33.908Z,101091.76
2019-01-04T18:23:01.551Z,101104.05
2019-01-04T18:25:29.433Z,101111.16
2019-01-04T18:27:57.402Z,101106.44
2019-01-04T18:30:25.385Z,101104.05
2019-01-04T18:32:53.355Z,101102.29
2019-01-04T18:35:20.982Z,101095.91
2019-01-04T18:37:48.972Z,101100.25
2019-01-04T18:40:16.941Z,101106.15
2019-01-04T18:42:44.906Z,101095.72
2019-01-04T18:45:12.533Z,101104.39
2019-01-04T18:47:40.172Z,101109.95
2019-01-04T18:50:08.108Z,101106.41
2019-01-04T18:52:36.071Z,101115.05
2019-01-04T18:55:04.047Z,101117.92
2019-01-04T18:57:31.679Z,101121.23
2019-01-04T18:59:59.571Z,101119.42
2019-01-04T19:02:27.203Z,101124.75
2019-01-04T19:04:55.213Z,101127.66
2019-01-04T19:07:23.172Z,101122.67
2019-01-04T19:09:51.138Z,101122.87
2019-01-04T19:12:19.111Z,101122.13
2019-01-04T19:14:46.725Z,101120.70
2019-01-04T19:17:14.638Z,101123.38
2019-01-04T19:19:42.606Z,101126.19
2019-01-04T19:22:10.240Z,101134.77
2019-01-04T19:24:38.155Z,101139.42
2019-01-04T19:27:06.111Z,101140.80
2019-01-04T19:29:34.079Z,101142.20
2019-01-04T19:32:02.046Z,101128.48
2019-01-04T19:34:29.669Z,101128.48
2019-01-04T19:36:57.296Z,101135.75
2019-01-04T19:39:25.237Z,101130.74
2019-01-04T19:41:53.215Z,101128.92
2019-01-04T19:44:20.830Z,101129.66
2019-01-04T19:46:48.738Z,101138.17
2019-01-04T19:49:16.367Z,101132.21
2019-01-04T19:51:44.279Z,101128.34
2019-01-04T19:54:12.239Z,101123.02
2019-01-04T19:56:40.213Z,101127.83
2019-01-04T19:59:07.843Z,101119.16
2019-01-04T20:01:35.471Z,101127.96
2019-01-04T20:04:03.410Z,101121.41
2019-01-04T20:06:40.180Z,101130.70
2019-01-04T20:09:26.954Z,101119.75
2019-01-04T20:12:13.733Z,101118.09
2019-01-04T20:15:06.777Z,101116.91
2019-01-04T20:17:59.507Z,101120.14
2019-01-04T20:20:46.724Z,101114.05
2019-01-04T20:23:40.807Z,101107.38
2019-01-04T20:26:26.705Z,101104.44
2019-01-04T20:29:24.485Z,101105.77
2019-01-04T20:32:11.161Z,101108.70
2019-01-04T20:35:13.145Z,101099.89
2019-01-04T20:37:59.141Z,101095.45
2019-01-04T20:41:04.683Z,101096.27
2019-01-04T20:43:49.487Z,101090.19
2019-01-04T20:46:33.192Z,101084.52
2019-01-04T20:49:18.905Z,101081.63
2019-01-04T20:52:04.875Z,101077.47
2019-01-04T20:55:03.761Z,101077.80
2019-01-04T20:57:50.776Z,101070.19
2019-01-04T21:00:40.565Z,101067.75
2019-01-04T21:03:27.248Z,101064.43
2019-01-04T21:06:12.595Z,101049.10
2019-01-04T21:09:02.632Z,101043.99
2019-01-04T21:11:48.317Z,101047.98
2019-01-04T21:14:34.001Z,101041.13
2019-01-04T21:17:21.020Z,101039.47
2019-01-04T21:20:21.396Z,101036.65
2019-01-04T21:23:06.641Z,101035.07
2019-01-04T21:25:55.171Z,101039.87
2019-01-04T21:28:44.132Z,101053.41
2019-01-04T21:31:26.335Z,101052.34
2019-01-04T21:34:13.374Z,101053.36
2019-01-04T21:37:06.410Z,101054.25
2019-01-04T21:40:06.984Z,101059.95
2019-01-04T21:42:55.089Z,101046.34
2019-01-04T21:45:57.390Z,101040.69
2019-01-04T21:48:48.789Z,101041.20
2019-01-04T21:51:34.977Z,101043.31
2019-01-04T21:54:34.076Z,101030.83
2019-01-04T21:57:19.762Z,101021.62
2019-01-04T22:00:15.395Z,101021.56
2019-01-04T22:03:02.084Z,101026.67
2019-01-04T22:05:47.390Z,101020.70
2019-01-04T22:08:32.133Z,101022.74
2019-01-04T22:11:17.722Z,101014.61
2019-01-04T22:14:14.863Z,101007.70
2019-01-04T22:17:14.271Z,101008.27
2019-01-04T22:19:59.659Z,101003.99
2019-01-04T22:22:58.974Z,100996.98
2019-01-04T22:25:57.849Z,100992.76
2019-01-04T22:28:39.988Z,100990.22
2019-01-04T22:31:29.936Z,100983.75
2019-01-04T22:34:14.391Z,100976.78
2019-01-04T22:36:59.792Z,100980.23
2019-01-04T22:39:45.561Z,100981.27
2019-01-04T22:42:31.126Z,100977.80
2019-01-04T22:45:32.725Z,100962.91
2019-01-04T22:48:18.791Z,100965.94
2019-01-04T22:51:21.397Z,100962.61
2019-01-04T22:54:07.071Z,100958.27
2019-01-04T22:57:01.265Z,100957.22
2019-01-04T22:59:51.436Z,100953.86
2019-01-04T23:02:37.224Z,100952.69
2019-01-04T23:05:22.653Z,100953.34
2019-01-04T23:08:08.791Z,100950.13
2019-01-04T23:11:06.355Z,100944.69
2019-01-04T23:13:50.198Z,100931.91
2019-01-04T23:16:39.498Z,100933.19
2019-01-04T23:19:31.944Z,100921.77
2019-01-04T23:22:22.005Z,100917.47
2019-01-04T23:25:07.694Z,100911.27
2019-01-04T23:27:53.168Z,100904.69
2019-01-04T23:30:38.131Z,100892.38
2019-01-04T23:33:29.273Z,100893.75
2019-01-04T23:36:15.033Z,100897.02
2019-01-04T23:39:04.204Z,100901.74
2019-01-04T23:41:55.517Z,100898.17
2019-01-04T23:44:40.838Z,100885.98
2019-01-04T23:47:30.755Z,100887.56
2019-01-04T23:50:12.983Z,100877.84
2019-01-04T23:53:06.453Z,100882.66
2019-01-04T23:55:57.255Z,100893.06
2019-01-04T23:58:49.901Z,100893.45
